Time;durP1;ratioP1;P1;durP2;ratioP2;P2;SDS_P1;SDS_P2;PMS_P1;PMS_P2;Temp;Humidity;BMP_temperature;BMP_pressure;BME280_temperature;BME280_humidity;BME280_pressure;Samples;Min_cycle;Max_cycle;Signal;HPM_P1;HPM_P2
2021/03/11 06:00:59;;;;;;;2.25;2.05;;;;;;;0.23;80.73;94830.34;5792465;23;20020;-75
2021/03/11 06:03:24;;;;;;;1.77;1.58;;;;;;;0.37;80.70;94825.06;4832311;29;20109;-75
2021/03/11 06:05:50;;;;;;;3.28;2.78;;;;;;;0.45;79.15;94814.34;4832105;29;20048;-75
2021/03/11 06:08:15;;;;;;;3.58;2.50;;;;;;;0.67;78.53;94831.38;4842902;29;20033;-75
2021/03/11 06:10:41;;;;;;;3.00;2.65;;;;;;;0.69;77.79;94830.31;4842136;29;20040;-75
2021/03/11 06:13:07;;;;;;;3.60;3.15;;;;;;;0.66;77.70;94850.94;4825680;29;20042;-75
2021/03/11 06:15:36;;;;;;;3.75;3.35;;;;;;;0.64;78.53;94852.78;4827185;29;20037;-75
2021/03/11 06:18:08;;;;;;;3.15;2.85;;;;;;;0.59;78.46;94857.41;4842539;29;20499;-76
2021/03/11 06:20:34;;;;;;;2.70;2.50;;;;;;;0.59;78.14;94841.31;4842783;29;20093;-75
2021/03/11 06:23:00;;;;;;;2.72;2.25;;;;;;;0.77;77.80;94857.78;4856980;29;20519;-76
2021/03/11 06:25:25;;;;;;;2.45;2.25;;;;;;;0.85;77.71;94879.22;4859200;29;20122;-75
2021/03/11 06:27:50;;;;;;;2.92;2.67;;;;;;;0.63;78.12;94863.09;4841348;29;20070;-76
2021/03/11 06:30:33;;;;;;;2.65;2.40;;;;;;;0.80;77.94;94890.69;4842531;29;20033;-75
2021/03/11 06:32:59;;;;;;;2.88;2.67;;;;;;;0.78;78.18;94892.53;4857862;29;20033;-75
2021/03/11 06:35:25;;;;;;;3.33;3.03;;;;;;;0.44;78.29;94861.09;4840856;29;20021;-75
2021/03/11 06:37:50;;;;;;;2.88;2.65;;;;;;;0.78;77.83;94897.63;4827422;29;20025;-75
2021/03/11 06:40:16;;;;;;;3.53;3.22;;;;;;;0.78;77.24;94907.81;4828107;29;20045;-75
2021/03/11 06:42:42;;;;;;;4.45;4.05;;;;;;;0.76;78.17;94902.84;4863168;29;20522;-75
2021/03/11 06:45:38;;;;;;;5.25;4.78;;;;;;;0.92;78.02;94931.38;4844079;29;20042;-75
2021/03/11 06:48:20;;;;;;;6.15;5.13;;;;;;;1.04;77.86;94939.84;4842629;29;20026;-75
2021/03/11 06:50:45;;;;;;;5.15;4.45;;;;;;;0.96;77.56;94912.34;4843244;29;20058;-75
2021/03/11 06:53:11;;;;;;;5.32;4.82;;;;;;;0.79;77.88;94889.88;4826584;29;20068;-75
2021/03/11 06:55:36;;;;;;;3.40;3.20;;;;;;;1.44;76.70;94923.19;4828167;29;20057;-75
2021/03/11 06:58:24;;;;;;;3.70;2.72;;;;;;;1.21;76.44;94923.28;4845162;29;20037;-75
2021/03/11 07:01:03;;;;;;;2.55;2.35;;;;;;;1.33;74.98;94935.91;4860268;29;20033;-76
2021/03/11 07:03:43;;;;;;;3.50;3.20;;;;;;;1.28;76.05;94945.66;4834822;29;20037;-75
2021/03/11 07:06:08;;;;;;;4.53;4.13;;;;;;;1.53;75.68;94955.66;4833638;29;20411;-75
2021/03/11 07:08:34;;;;;;;3.75;3.40;;;;;;;1.59;76.10;94965.38;4841644;29;20104;-75
2021/03/11 07:11:06;;;;;;;3.90;3.60;;;;;;;1.58;77.27;94976.50;4839998;29;20619;-74
2021/03/11 07:13:41;;;;;;;2.88;2.65;;;;;;;1.61;75.59;94969.56;4838159;29;20033;-75
2021/03/11 07:16:19;;;;;;;2.00;1.80;;;;;;;1.78;74.16;94969.06;4841255;29;20041;-75
2021/03/11 07:18:45;;;;;;;1.48;1.30;;;;;;;1.66;72.93;94967.47;4840972;29;20499;-75
2021/03/11 07:21:11;;;;;;;2.10;1.70;;;;;;;1.82;72.59;94967.91;4838558;29;20062;-75
2021/03/11 07:23:46;;;;;;;1.48;1.15;;;;;;;0.49;71.74;94795.34;4853920;29;20029;-75
2021/03/11 07:26:12;;;;;;;1.30;1.20;;;;;;;2.01;71.37;94968.13;4854166;29;20026;-75
2021/03/11 07:28:37;;;;;;;2.03;1.83;;;;;;;1.68;71.82;94927.31;4842141;29;20033;-75
2021/03/11 07:31:03;;;;;;;1.77;1.00;;;;;;;2.34;71.25;94974.91;4854634;29;20469;-75
2021/03/11 07:33:35;;;;;;;0.98;0.90;;;;;;;2.33;69.30;94976.63;4853613;29;20109;-75
2021/03/11 07:36:04;;;;;;;1.15;1.05;;;;;;;2.61;69.69;94976.06;4868736;29;20040;-75
2021/03/11 07:38:31;;;;;;;1.45;1.35;;;;;;;2.79;67.72;94955.91;4847470;29;20049;-75
2021/03/11 07:40:58;;;;;;;1.45;1.27;;;;;;;2.94;68.92;94989.66;4836590;29;20109;-75
2021/03/11 07:43:24;;;;;;;2.45;1.23;;;;;;;3.09;67.80;94980.72;4853034;29;20037;-74
2021/03/11 07:45:49;;;;;;;1.60;1.50;;;;;;;3.32;67.59;94984.78;4838527;29;20026;-75
2021/03/11 07:48:15;;;;;;;2.17;1.67;;;;;;;3.41;65.44;94993.44;4852189;29;20046;-75
2021/03/11 07:50:42;;;;;;;2.05;1.48;;;;;;;3.13;67.97;95005.94;4836738;29;20052;-75
2021/03/11 07:53:08;;;;;;;1.50;1.40;;;;;;;3.02;68.48;94985.53;4852620;29;20517;-74
2021/03/11 07:55:34;;;;;;;1.58;1.48;;;;;;;2.71;67.67;94988.13;4837925;29;20021;-74
2021/03/11 07:58:06;;;;;;;1.30;1.17;;;;;;;2.94;69.41;94997.31;4837795;29;20033;-73
2021/03/11 08:00:35;;;;;;;1.45;1.35;;;;;;;3.24;68.30;95001.69;4852950;29;20072;-73
2021/03/11 08:03:20;;;;;;;1.38;1.27;;;;;;;3.10;67.54;95010.50;4853854;29;20061;-73
2021/03/11 08:05:46;;;;;;;1.65;1.55;;;;;;;3.24;66.74;94992.28;4843915;29;20045;-73
2021/03/11 08:08:21;;;;;;;2.00;1.90;;;;;;;3.70;67.03;95012.31;4854039;29;20420;-73
2021/03/11 08:10:51;;;;;;;2.03;1.92;;;;;;;3.70;65.49;95005.44;4852605;29;20034;-73
2021/03/11 08:13:35;;;;;;;1.95;1.85;;;;;;;4.49;62.49;94998.69;4854046;29;20037;-73
2021/03/11 08:16:10;;;;;;;1.98;1.77;;;;;;;4.59;62.69;95016.66;4840114;29;20043;-73
2021/03/11 08:18:35;;;;;;;1.50;1.40;;;;;;;4.65;61.65;95016.94;4853715;29;20096;-73
2021/03/11 08:21:01;;;;;;;2.17;2.08;;;;;;;3.91;65.31;95025.09;4854792;29;20484;-73
2021/03/11 08:23:31;;;;;;;2.63;2.42;;;;;;;3.97;65.85;95033.06;4854060;29;20472;-73
2021/03/11 08:25:56;;;;;;;2.30;2.20;;;;;;;4.10;65.58;95030.28;4855414;29;20033;-73
2021/03/11 08:28:25;;;;;;;3.08;1.92;;;;;;;4.04;68.33;95039.31;4832853;29;20063;-74
2021/03/11 08:31:02;;;;;;;3.15;2.95;;;;;;;3.64;68.03;95035.88;4852718;29;20038;-74
2021/03/11 08:33:27;;;;;;;2.63;2.33;;;;;;;3.67;69.83;95049.22;4838904;29;20041;-74
2021/03/11 08:35:57;;;;;;;4.03;3.72;;;;;;;3.33;70.66;95047.00;4853711;29;20037;-75
2021/03/11 08:38:22;;;;;;;2.90;2.70;;;;;;;3.38;70.37;95055.94;4838590;29;20030;-74
2021/03/11 08:40:55;;;;;;;4.32;3.97;;;;;;;3.49;69.78;95055.88;4844507;29;20482;-74
2021/03/11 08:43:38;;;;;;;4.10;3.80;;;;;;;4.08;68.69;95050.09;4846715;29;20040;-74
2021/03/11 08:46:08;;;;;;;3.35;3.05;;;;;;;3.77;68.73;95051.03;4845901;29;20496;-74
2021/03/11 08:48:50;;;;;;;4.10;3.80;;;;;;;3.77;69.24;95056.16;4832762;29;20030;-74
2021/03/11 08:51:22;;;;;;;6.05;5.55;;;;;;;4.00;67.79;95055.06;4834442;29;20069;-73
2021/03/11 08:53:51;;;;;;;5.45;5.05;;;;;;;3.75;69.39;95033.25;4836020;29;20041;-75
2021/03/11 08:56:17;;;;;;;7.33;6.73;;;;;;;4.56;67.21;95061.28;4835644;29;20034;-75
2021/03/11 08:58:51;;;;;;;7.40;6.80;;;;;;;4.38;65.69;95067.19;4836843;29;20041;-74
2021/03/11 09:01:45;;;;;;;8.75;8.05;;;;;;;4.30;68.08;95070.41;4839086;29;20403;-74
2021/03/11 09:04:27;;;;;;;6.55;6.05;;;;;;;4.61;67.11;95076.31;4851646;29;20051;-74
2021/03/11 09:07:02;;;;;;;7.50;6.90;;;;;;;4.36;67.93;95064.78;4856503;29;20113;-74
2021/03/11 09:09:31;;;;;;;5.13;4.72;;;;;;;4.29;68.35;95068.78;4858128;29;20041;-74
2021/03/11 09:11:57;;;;;;;3.95;3.65;;;;;;;4.05;66.50;95033.22;4857531;29;20528;-74
2021/03/11 09:14:23;;;;;;;4.75;4.45;;;;;;;4.41;67.35;95066.94;4856028;29;20033;-75
2021/03/11 09:16:48;;;;;;;4.40;3.78;;;;;;;3.93;67.43;95084.69;4856641;29;20029;-75
2021/03/11 09:19:14;;;;;;;3.10;2.90;;;;;;;3.81;67.41;95070.31;4856120;29;20488;-74
2021/03/11 09:25:04;;;;;;;4.20;3.90;;;;;;;3.73;70.36;95094.00;4846426;24;20148;-75
2021/03/11 09:27:29;;;;;;;12.40;7.05;;;;;;;3.79;70.53;95079.91;4839592;29;20553;-74
2021/03/11 09:29:56;;;;;;;4.18;3.88;;;;;;;3.67;69.85;95087.63;4825482;29;20053;-75
2021/03/11 09:32:27;;;;;;;3.60;3.30;;;;;;;3.23;71.70;95094.72;4808544;29;20042;-74
2021/03/11 09:34:56;;;;;;;4.88;4.47;;;;;;;3.34;71.29;95090.38;4837463;29;20333;-74
2021/03/11 09:37:48;;;;;;;3.70;3.40;;;;;;;3.64;69.15;95099.88;4827817;29;20046;-74
2021/03/11 09:40:25;;;;;;;4.07;3.78;;;;;;;3.83;68.54;95081.25;4826592;29;20050;-74
2021/03/11 09:43:17;;;;;;;6.03;5.53;;;;;;;4.07;69.75;95094.59;4827986;29;20030;-75
2021/03/11 09:45:46;;;;;;;7.63;6.75;;;;;;;4.64;67.27;95088.84;4844983;29;20049;-74
2021/03/11 09:48:19;;;;;;;4.57;4.25;;;;;;;4.40;67.81;95098.66;4842452;29;20097;-75
2021/03/11 09:50:54;;;;;;;4.85;4.45;;;;;;;4.29;68.50;95108.97;4843727;29;20038;-75
2021/03/11 09:53:19;;;;;;;4.40;4.10;;;;;;;3.88;68.18;95117.56;4859150;29;20068;-75
2021/03/11 09:55:45;;;;;;;5.20;4.80;;;;;;;3.93;68.14;95108.53;4858473;29;20040;-75
2021/03/11 09:58:17;;;;;;;5.35;4.95;;;;;;;3.92;68.72;95117.16;4826984;29;20037;-75
2021/03/11 10:00:44;;;;;;;4.43;4.13;;;;;;;3.84;68.81;95126.41;4824890;29;20050;-75
2021/03/11 10:03:21;;;;;;;5.78;5.38;;;;;;;3.77;69.16;95115.06;4826986;29;20499;-75
2021/03/11 10:06:00;;;;;;;5.40;5.00;;;;;;;4.03;67.82;95117.09;4841816;29;20033;-74
2021/03/11 10:08:28;;;;;;;5.57;5.07;;;;;;;4.78;65.36;95130.31;4828925;29;20041;-75
2021/03/11 10:11:09;;;;;;;4.97;4.57;;;;;;;4.82;65.47;95118.06;4860343;29;20037;-75
2021/03/11 10:13:39;;;;;;;2.70;2.50;;;;;;;4.68;63.84;95129.50;4829975;29;20476;-75
2021/03/11 10:16:05;;;;;;;3.30;2.42;;;;;;;4.07;62.11;95115.09;4828040;29;20063;-75
2021/03/11 10:18:30;;;;;;;2.40;2.30;;;;;;;4.17;63.34;95091.13;4843334;29;20405;-75
2021/03/11 10:21:09;;;;;;;3.03;2.83;;;;;;;4.00;64.03;95130.16;4842048;29;20040;-74
2021/03/11 10:23:37;;;;;;;2.30;2.10;;;;;;;3.85;64.31;95113.50;4855919;29;20539;-75
2021/03/11 10:26:19;;;;;;;2.55;2.45;;;;;;;3.58;67.49;95125.97;4841464;29;20041;-75
2021/03/11 10:28:45;;;;;;;2.38;2.17;;;;;;;2.36;67.39;95116.09;4840879;29;20040;-75
2021/03/11 10:31:11;;;;;;;2.30;2.15;;;;;;;2.54;70.04;95120.59;4839797;29;20038;-76
2021/03/11 10:33:38;;;;;;;2.65;2.45;;;;;;;1.96;69.40;95124.22;4838142;29;20330;-75
2021/03/11 10:36:11;;;;;;;2.55;2.35;;;;;;;2.60;69.52;95137.22;4811625;29;20118;-76
2021/03/11 10:38:36;;;;;;;2.22;2.13;;;;;;;3.28;67.87;95129.25;4823369;29;20042;-77
2021/03/11 10:41:16;;;;;;;2.58;2.38;;;;;;;2.76;68.05;95118.97;4793804;29;20079;-74
2021/03/11 10:43:41;;;;;;;2.57;2.37;;;;;;;2.85;67.70;95142.06;4809011;29;20432;-76
2021/03/11 10:46:08;;;;;;;2.85;2.67;;;;;;;3.71;67.33;95139.41;4791842;29;20022;-77
2021/03/11 10:48:52;;;;;;;3.75;3.45;;;;;;;4.49;63.66;95132.00;4791197;29;20042;-74
2021/03/11 10:51:20;;;;;;;2.80;2.60;;;;;;;3.57;67.69;95158.44;4791720;29;20034;-73
2021/03/11 10:53:45;;;;;;;3.05;2.85;;;;;;;4.04;65.85;95146.09;4805818;29;20121;-75
2021/03/11 10:56:11;;;;;;;2.90;2.70;;;;;;;4.00;65.71;95137.84;4833399;29;20037;-72
2021/03/11 10:58:37;;;;;;;3.50;3.30;;;;;;;4.40;65.74;95124.28;4823946;29;20032;-73
2021/03/11 11:01:09;;;;;;;2.88;2.75;;;;;;;4.26;66.48;95156.19;4823946;29;20038;-73
2021/03/11 11:03:35;;;;;;;2.45;2.35;;;;;;;3.87;67.50;95160.28;4824098;29;20514;-73
2021/03/11 11:06:01;;;;;;;2.90;2.70;;;;;;;4.41;65.24;95131.84;4823547;29;20037;-74
2021/03/11 11:08:26;;;;;;;3.17;2.97;;;;;;;4.42;63.44;95153.16;4809301;29;20483;-72
2021/03/11 11:10:52;;;;;;;14.88;3.40;;;;;;;3.25;66.22;95167.06;4808107;29;20484;-73
2021/03/11 11:13:17;;;;;;;2.75;2.55;;;;;;;3.67;65.90;95177.25;4809584;29;20037;-73
2021/03/11 11:15:43;;;;;;;2.92;2.70;;;;;;;3.64;67.50;95176.69;4838516;29;20475;-73
2021/03/11 11:18:08;;;;;;;3.47;3.17;;;;;;;3.00;67.27;95152.84;4851584;29;20033;-76
2021/03/11 11:20:36;;;;;;;3.72;3.45;;;;;;;3.62;68.79;95176.00;4823326;29;20085;-77
2021/03/11 11:23:01;;;;;;;3.42;3.22;;;;;;;3.33;68.04;95160.41;4838488;29;20081;-75
2021/03/11 11:25:27;;;;;;;3.05;2.85;;;;;;;3.51;66.25;95135.91;4854764;29;20116;-76
2021/03/11 11:27:52;;;;;;;3.42;3.22;;;;;;;2.88;68.26;95149.50;4839162;29;20033;-77
2021/03/11 11:30:19;;;;;;;3.53;3.33;;;;;;;2.81;70.39;95160.31;4855600;29;20086;-74
2021/03/11 11:32:44;;;;;;;3.13;2.92;;;;;;;2.86;68.33;95148.78;4854749;29;20045;-76
2021/03/11 11:35:10;;;;;;;3.70;3.40;;;;;;;2.90;69.19;95167.25;4841708;29;20042;-77
2021/03/11 11:37:36;;;;;;;3.60;3.40;;;;;;;3.26;70.28;95154.16;4849353;29;20396;-76
2021/03/11 11:40:02;;;;;;;4.00;3.70;;;;;;;3.36;68.65;95169.59;4838169;29;20099;-77
2021/03/11 11:42:27;;;;;;;3.75;3.50;;;;;;;2.28;70.93;95075.78;4823917;29;20056;-76
2021/03/11 11:44:53;;;;;;;4.25;3.95;;;;;;;3.22;71.00;95162.19;4818916;29;20037;-76
2021/03/11 11:47:18;;;;;;;4.40;4.10;;;;;;;3.18;71.76;95151.38;4855846;29;20045;-76
2021/03/11 11:49:44;;;;;;;3.67;3.47;;;;;;;3.14;68.37;95150.84;4839826;29;20117;-76
2021/03/11 11:52:10;;;;;;;4.07;3.78;;;;;;;2.27;70.89;95107.41;4841298;29;20035;-78
2021/03/11 11:54:35;;;;;;;3.47;3.28;;;;;;;2.55;70.17;95104.34;4840000;29;20325;-76
2021/03/11 11:57:01;;;;;;;4.10;3.80;;;;;;;3.03;69.66;95137.25;4825976;29;20458;-77
2021/03/11 11:59:28;;;;;;;4.13;3.83;;;;;;;2.27;71.86;95152.56;4856438;29;20053;-77
2021/03/11 12:01:53;;;;;;;3.83;3.53;;;;;;;3.02;70.35;95150.97;4839680;29;20034;-76
2021/03/11 12:04:19;;;;;;;3.42;3.22;;;;;;;2.88;68.53;95129.03;4856264;29;20040;-79
2021/03/11 12:06:44;;;;;;;4.35;3.65;;;;;;;3.31;68.53;95135.88;4840029;29;20491;-76
2021/03/11 12:09:09;;;;;;;3.95;3.72;;;;;;;2.66;70.62;95142.66;4841017;29;20388;-77
2021/03/11 12:11:35;;;;;;;4.53;4.22;;;;;;;3.61;69.17;95141.09;4821879;29;20034;-76
2021/03/11 12:14:01;;;;;;;4.13;3.83;;;;;;;2.80;69.83;95126.25;4839678;29;20427;-77
2021/03/11 12:16:27;;;;;;;4.25;3.95;;;;;;;3.09;68.66;95129.91;4842010;29;20029;-77
2021/03/11 12:18:52;;;;;;;4.32;4.03;;;;;;;3.99;68.14;95084.97;4841099;29;20026;-77
2021/03/11 12:21:18;;;;;;;4.10;3.80;;;;;;;2.96;68.83;95131.78;4843319;29;20030;-77
2021/03/11 12:23:43;;;;;;;3.88;3.58;;;;;;;3.27;69.99;95144.75;4858925;29;20050;-77
2021/03/11 12:26:09;;;;;;;4.15;3.85;;;;;;;3.05;69.01;95125.16;4837709;29;20029;-77
2021/03/11 12:28:34;;;;;;;3.47;3.28;;;;;;;3.02;67.52;95133.06;4806991;29;20416;-78
2021/03/11 12:31:01;;;;;;;4.40;4.10;;;;;;;3.19;70.19;95140.22;4828236;29;20033;-77
2021/03/11 12:33:27;;;;;;;3.80;3.50;;;;;;;2.53;69.32;95121.56;4844327;29;20109;-78
2021/03/11 12:35:52;;;;;;;4.32;4.03;;;;;;;2.94;69.34;95122.63;4832283;29;20034;-77
2021/03/11 12:38:18;;;;;;;4.18;3.88;;;;;;;3.23;67.05;95067.41;4863136;29;20040;-77
2021/03/11 12:40:43;;;;;;;4.60;4.30;;;;;;;3.80;69.33;95123.28;4844345;29;20044;-74
2021/03/11 12:43:08;;;;;;;4.18;3.97;;;;;;;4.08;65.45;95080.81;4830429;29;20037;-75
2021/03/11 12:45:34;;;;;;;4.38;4.07;;;;;;;3.54;67.59;95112.63;4822789;29;20033;-75
2021/03/11 12:47:59;;;;;;;3.22;3.03;;;;;;;3.48;66.96;95102.06;4846138;29;20045;-77
2021/03/11 12:50:25;;;;;;;3.72;3.50;;;;;;;4.05;64.40;95109.28;4844935;29;20487;-76
2021/03/11 12:52:51;;;;;;;4.45;4.15;;;;;;;4.83;62.30;95109.41;4842340;29;20033;-73
2021/03/11 12:55:17;;;;;;;4.03;3.72;;;;;;;4.68;60.45;95111.56;4855994;29;20029;-73
2021/03/11 12:57:42;;;;;;;4.10;3.80;;;;;;;4.42;62.42;95105.25;4841531;29;20403;-73
2021/03/11 13:00:09;;;;;;;4.47;4.18;;;;;;;4.28;60.83;95102.22;4856813;29;20488;-74
2021/03/11 13:02:34;;;;;;;3.95;3.65;;;;;;;3.64;62.29;95105.81;4860675;29;20093;-74
2021/03/11 13:05:00;;;;;;;4.18;3.88;;;;;;;3.90;62.23;95106.25;4858899;29;20480;-75
2021/03/11 13:07:25;;;;;;;4.82;4.43;;;;;;;3.53;65.57;95090.50;4841254;29;20460;-74
2021/03/11 13:09:52;;;;;;;4.43;4.10;;;;;;;4.00;62.89;95094.28;4841490;29;20045;-74
2021/03/11 13:12:17;;;;;;;4.03;3.72;;;;;;;4.63;61.02;95082.91;4840669;29;20033;-74
2021/03/11 13:14:42;;;;;;;4.28;3.97;;;;;;;5.05;60.40;95114.31;4841867;29;20022;-74
2021/03/11 13:17:08;;;;;;;3.83;3.53;;;;;;;5.38;61.37;95125.97;4826965;29;20476;-74
2021/03/11 13:19:33;;;;;;;4.30;4.00;;;;;;;4.97;60.92;95103.09;4843983;29;20026;-77
2021/03/11 13:21:59;;;;;;;5.10;4.70;;;;;;;5.38;62.94;95115.69;4859745;29;20329;-77
2021/03/11 13:24:24;;;;;;;4.13;3.85;;;;;;;5.01;63.20;95117.31;4842700;29;20056;-75
2021/03/11 13:26:51;;;;;;;4.72;4.43;;;;;;;5.01;60.94;95117.31;4842480;29;20076;-75
2021/03/11 13:29:17;;;;;;;4.43;4.13;;;;;;;4.75;63.45;95130.59;4856033;29;20052;-74
2021/03/11 13:31:42;;;;;;;4.63;4.28;;;;;;;5.03;63.96;95120.53;4857266;29;20495;-74
2021/03/11 13:34:08;;;;;;;4.85;4.45;;;;;;;4.85;66.57;95124.69;4857736;29;20447;-75
2021/03/11 13:36:34;;;;;;;6.05;5.55;;;;;;;4.66;65.62;95128.81;4843632;29;20037;-74
2021/03/11 13:39:00;;;;;;;5.05;4.75;;;;;;;4.42;65.76;95077.06;4842947;29;20038;-74
2021/03/11 13:41:26;;;;;;;5.68;5.28;;;;;;;4.91;66.41;95126.72;4857708;29;20033;-75
2021/03/11 13:43:51;;;;;;;4.80;4.40;;;;;;;4.49;64.51;95111.50;4841909;29;20097;-73
2021/03/11 13:46:17;;;;;;;3.85;3.55;;;;;;;4.27;65.60;95124.47;4856360;29;20034;-74
2021/03/11 13:48:42;;;;;;;5.05;4.55;;;;;;;4.44;66.09;95077.72;4856997;29;20037;-75
2021/03/11 13:51:08;;;;;;;4.80;4.30;;;;;;;4.15;65.64;95113.50;4842518;29;20108;-75
2021/03/11 13:53:34;;;;;;;4.90;4.50;;;;;;;4.93;65.91;95117.13;4842209;29;20038;-74
2021/03/11 13:56:00;;;;;;;7.63;7.03;;;;;;;4.64;66.24;95079.41;4856037;29;20531;-74
2021/03/11 13:58:25;;;;;;;5.22;4.82;;;;;;;4.82;65.03;95107.78;4856807;29;20033;-75
2021/03/11 14:00:52;;;;;;;6.30;5.80;;;;;;;5.70;64.84;95087.16;4857550;29;20045;-76
2021/03/11 14:03:21;;;;;;;5.88;5.38;;;;;;;6.14;62.67;95106.28;4861117;29;20026;-78
2021/03/11 14:05:46;;;;;;;15.23;9.30;;;;;;;5.05;64.00;95106.63;4826506;29;20492;-78
2021/03/11 14:08:11;;;;;;;6.88;6.18;;;;;;;5.29;64.91;95111.38;4827359;29;20033;-75
2021/03/11 14:10:37;;;;;;;6.50;6.03;;;;;;;4.43;66.76;95108.66;4840401;29;20075;-75
2021/03/11 14:13:03;;;;;;;5.40;5.00;;;;;;;4.36;65.16;95092.97;4827630;29;20499;-74
2021/03/11 14:15:29;;;;;;;6.18;5.70;;;;;;;4.67;63.03;95091.16;4841172;29;20121;-74
2021/03/11 14:17:54;;;;;;;5.47;5.07;;;;;;;4.73;64.15;95099.13;4855793;29;20487;-73
2021/03/11 14:20:20;;;;;;;5.45;5.05;;;;;;;4.24;61.09;95089.66;4853499;29;20500;-73
2021/03/11 14:22:46;;;;;;;5.32;5.00;;;;;;;4.67;64.18;95109.94;4823925;29;20071;-74
2021/03/11 14:25:11;;;;;;;5.35;4.95;;;;;;;4.74;64.84;95080.25;4807475;29;20363;-73
2021/03/11 14:27:37;;;;;;;5.68;5.15;;;;;;;4.95;62.91;95087.00;4838541;29;20030;-74
2021/03/11 14:30:03;;;;;;;5.07;4.68;;;;;;;4.16;64.80;95011.81;4823559;29;20044;-74
2021/03/11 14:32:28;;;;;;;5.88;5.32;;;;;;;4.52;65.93;95102.72;4837571;29;20036;-74
2021/03/11 14:34:54;;;;;;;5.30;4.85;;;;;;;4.76;63.65;95075.78;4838590;29;20472;-74
2021/03/11 14:37:19;;;;;;;5.88;5.28;;;;;;;3.88;64.49;95092.75;4823711;29;20033;-74
2021/03/11 14:39:45;;;;;;;6.18;5.60;;;;;;;4.11;67.35;95083.94;4822753;29;20030;-74
2021/03/11 14:42:10;;;;;;;6.45;5.95;;;;;;;4.31;66.26;95073.78;4823671;29;20029;-73
2021/03/11 14:44:36;;;;;;;6.38;5.78;;;;;;;4.27;66.63;95080.91;4837910;29;20527;-73
2021/03/11 14:47:01;;;;;;;9.23;6.60;;;;;;;4.39;66.15;95085.00;4823252;29;20041;-73
2021/03/11 14:49:27;;;;;;;6.70;6.15;;;;;;;4.13;66.91;95063.34;4837865;29;20026;-73
2021/03/11 14:51:54;;;;;;;6.85;6.28;;;;;;;4.21;66.87;95092.50;4838511;29;20044;-73
2021/03/11 14:54:20;;;;;;;8.38;7.68;;;;;;;4.23;67.05;95084.69;4838247;29;20078;-73
2021/03/11 14:56:45;;;;;;;9.38;8.52;;;;;;;4.12;67.15;95072.78;4822323;29;20041;-73
2021/03/11 14:59:10;;;;;;;10.20;9.25;;;;;;;4.17;67.02;95080.09;4808141;29;20041;-73
2021/03/11 15:01:36;;;;;;;11.25;9.80;;;;;;;3.62;67.71;95074.41;4822038;29;20025;-74
2021/03/11 15:04:03;;;;;;;10.80;9.73;;;;;;;3.55;69.40;95080.16;4823925;29;20032;-73
2021/03/11 15:06:28;;;;;;;14.25;12.20;;;;;;;3.59;68.84;95053.38;4837246;29;20034;-73
2021/03/11 15:08:53;;;;;;;18.40;15.32;;;;;;;4.02;68.97;95078.78;4838141;29;20081;-74
2021/03/11 15:11:19;;;;;;;11.55;10.50;;;;;;;4.17;67.94;95088.56;4822556;29;20476;-73
2021/03/11 15:13:45;;;;;;;11.27;9.27;;;;;;;3.84;67.93;95052.16;4838742;29;20052;-73
2021/03/11 15:16:11;;;;;;;10.35;9.27;;;;;;;3.97;67.21;95068.94;4823021;29;20029;-73
2021/03/11 15:18:37;;;;;;;11.38;10.20;;;;;;;4.00;67.98;95078.09;4826063;29;20100;-74
2021/03/11 15:21:02;;;;;;;8.98;8.07;;;;;;;4.20;68.57;95108.00;4840999;29;20153;-72
2021/03/11 15:23:28;;;;;;;10.68;8.90;;;;;;;3.95;69.86;95111.00;4821447;29;20050;-72
2021/03/11 15:25:53;;;;;;;11.23;9.50;;;;;;;4.00;69.05;95091.72;4832017;29;20110;-72
2021/03/11 15:28:19;;;;;;;11.05;8.27;;;;;;;3.98;68.55;95101.28;4821852;29;20037;-72
2021/03/11 15:30:44;;;;;;;8.05;7.35;;;;;;;3.75;69.07;95120.31;4822509;29;20029;-72
2021/03/11 15:33:10;;;;;;;12.25;10.30;;;;;;;4.05;70.26;95127.19;4821884;29;20228;-72
2021/03/11 15:35:35;;;;;;;8.52;7.82;;;;;;;4.08;68.73;95117.50;4833543;29;20477;-72
2021/03/11 15:38:01;;;;;;;8.60;7.90;;;;;;;3.97;69.65;95124.47;4838205;29;20056;-72
2021/03/11 15:40:26;;;;;;;7.68;7.07;;;;;;;3.80;68.83;95112.22;4836011;29;20381;-72
2021/03/11 15:42:52;;;;;;;11.93;10.73;;;;;;;3.75;68.63;95119.50;4837910;29;20055;-72
2021/03/11 15:45:18;;;;;;;15.82;14.13;;;;;;;3.70;68.62;95120.66;4852206;29;20044;-72
2021/03/11 15:47:43;;;;;;;8.82;7.93;;;;;;;3.26;67.96;95094.50;4852719;29;20022;-74
2021/03/11 15:50:10;;;;;;;11.77;10.57;;;;;;;3.00;69.66;95086.34;4836755;29;20033;-73
2021/03/11 15:52:36;;;;;;;11.30;9.90;;;;;;;3.39;69.66;95141.19;4852791;29;20049;-73
2021/03/11 15:55:01;;;;;;;9.85;8.85;;;;;;;3.73;68.64;95127.28;4835298;29;20034;-73
2021/03/11 15:57:27;;;;;;;11.48;10.27;;;;;;;3.43;70.33;95122.09;4836698;29;20041;-73
2021/03/11 15:59:52;;;;;;;12.40;10.85;;;;;;;3.13;70.81;95135.59;4822825;29;20094;-73
2021/03/11 16:02:19;;;;;;;14.32;11.70;;;;;;;3.31;71.57;95144.34;4836442;29;20033;-73
2021/03/11 16:04:44;;;;;;;22.35;13.85;;;;;;;3.16;70.45;95136.16;4853028;29;20033;-73
2021/03/11 16:07:10;;;;;;;13.73;10.55;;;;;;;2.85;70.82;95098.59;4822151;29;20121;-74
2021/03/11 16:09:36;;;;;;;12.05;10.85;;;;;;;3.07;70.87;95121.53;4823672;29;20503;-73
2021/03/11 16:12:01;;;;;;;11.88;10.68;;;;;;;2.98;71.95;95149.59;4841371;29;20030;-74
2021/03/11 16:14:27;;;;;;;14.73;12.45;;;;;;;3.19;72.35;95163.25;4841316;29;20503;-74
2021/03/11 16:16:52;;;;;;;19.38;16.65;;;;;;;3.23;72.22;95168.94;4856190;29;20045;-74
2021/03/11 16:19:18;;;;;;;22.98;16.58;;;;;;;3.05;72.47;95155.84;4840470;29;20041;-74
2021/03/11 16:21:43;;;;;;;17.25;14.20;;;;;;;3.08;71.47;95165.84;4841504;29;20048;-74
2021/03/11 16:24:09;;;;;;;21.95;14.05;;;;;;;2.88;72.29;95164.84;4840022;29;20056;-74
2021/03/11 16:26:35;;;;;;;20.42;15.02;;;;;;;2.85;73.38;95156.59;4841158;29;20038;-74
2021/03/11 16:29:00;;;;;;;59.75;27.95;;;;;;;2.80;72.24;95166.34;4841202;29;20033;-76
2021/03/11 16:31:26;;;;;;;100.10;40.85;;;;;;;2.57;72.83;95171.47;4857822;29;20040;-76
2021/03/11 16:33:52;;;;;;;56.20;26.05;;;;;;;2.44;73.13;95152.91;4856939;29;20049;-77
2021/03/11 16:36:17;;;;;;;44.85;24.75;;;;;;;2.44;73.87;95170.00;4850919;29;20021;-76
2021/03/11 16:38:43;;;;;;;45.22;24.48;;;;;;;2.46;73.42;95170.69;4857719;29;20443;-76
2021/03/11 16:41:08;;;;;;;26.90;15.98;;;;;;;2.36;72.41;95162.91;4826755;29;20029;-77
2021/03/11 16:43:35;;;;;;;20.85;13.15;;;;;;;2.08;72.38;95132.72;4841536;29;20034;-76
2021/03/11 16:46:00;;;;;;;65.70;28.02;;;;;;;2.34;72.79;95167.31;4841307;29;20079;-76
2021/03/11 16:48:26;;;;;;;74.40;33.42;;;;;;;2.18;72.83;95148.16;4840819;29;20625;-74
2021/03/11 16:50:51;;;;;;;92.90;42.88;;;;;;;2.30;73.16;95196.56;4825748;29;20041;-77
2021/03/11 16:53:17;;;;;;;61.20;29.58;;;;;;;2.22;73.79;95168.22;4826168;29;20038;-76
2021/03/11 16:55:43;;;;;;;14.57;11.02;;;;;;;2.35;74.12;95188.56;4841960;29;20061;-77
2021/03/11 16:58:09;;;;;;;7.93;7.07;;;;;;;2.16;74.64;95195.97;4842479;29;20479;-76
2021/03/11 17:00:34;;;;;;;9.27;7.78;;;;;;;2.02;74.92;95174.03;4825969;29;20037;-77
2021/03/11 17:03:00;;;;;;;46.25;27.95;;;;;;;1.99;75.79;95181.91;4841186;29;20396;-77
2021/03/11 17:05:26;;;;;;;30.88;19.08;;;;;;;1.95;76.15;95188.16;4825471;29;20034;-77
2021/03/11 17:07:52;;;;;;;16.17;11.25;;;;;;;2.16;76.19;95218.94;4840082;29;20030;-77
2021/03/11 17:10:18;;;;;;;15.05;13.45;;;;;;;1.88;76.68;95192.09;4841240;29;20036;-76
2021/03/11 17:12:43;;;;;;;7.80;7.15;;;;;;;1.96;76.96;95211.00;4856102;29;20037;-76
2021/03/11 17:15:09;;;;;;;8.82;8.02;;;;;;;1.85;76.32;95199.97;4841348;29;20034;-76
2021/03/11 17:17:35;;;;;;;14.15;11.65;;;;;;;1.78;76.21;95212.38;4857385;29;20068;-76
2021/03/11 17:20:00;;;;;;;13.02;11.73;;;;;;;1.89;76.26;95234.56;4826266;29;20037;-76
2021/03/11 17:22:27;;;;;;;11.60;10.50;;;;;;;1.62;77.45;95221.25;4842558;29;20029;-76
2021/03/11 17:24:53;;;;;;;9.70;8.80;;;;;;;1.32;78.50;95191.06;4827283;29;20057;-76
2021/03/11 17:27:19;;;;;;;9.05;8.35;;;;;;;1.63;77.84;95218.59;4843188;29;20040;-77
2021/03/11 17:29:44;;;;;;;9.60;8.70;;;;;;;1.34;77.75;95209.66;4842059;29;20448;-77
2021/03/11 17:32:10;;;;;;;10.10;9.30;;;;;;;1.39;77.58;95233.91;4843311;29;20045;-77
2021/03/11 17:34:35;;;;;;;10.13;9.23;;;;;;;1.36;76.96;95231.56;4815029;29;20038;-77
2021/03/11 17:37:01;;;;;;;10.70;9.77;;;;;;;1.16;77.40;95210.91;4828626;29;20038;-76
2021/03/11 17:39:26;;;;;;;12.25;9.80;;;;;;;1.04;76.05;95197.31;4838740;29;20043;-77
2021/03/11 17:41:51;;;;;;;11.25;10.15;;;;;;;0.95;76.82;95195.41;4856971;29;20037;-77
2021/03/11 17:44:18;;;;;;;10.55;9.50;;;;;;;0.67;76.09;95168.47;4826150;29;20132;-77